Darbhanga Airport

Jump to: basic info | weather | runways | comments

Related pages: nearby airports | nearby navaids | notams | map

Basic information (top)

Codes: VE89
Location: lon 26.192801, lat 85.916901, elev 156 ft / 48 m msl
Status: small_airport

Weather (top)

Current conditions for Lok Nayak Jayaprakash Airport 58nm (107km) SW (rec'd 2014/04/16 14:50Z):

VEPT 161450Z 00000KT 4000 HZ NSC 30/16 Q1004 NOSIG

Airport forecast for Lok Nayak Jayaprakash Airport 58nm (107km) SW (rec'd 2014/04/10 12:00Z):

TAF VEPT 100900Z 1012/1118 30004KT 4000 HZ NSC 
      BECMG 1016/1018 3000 HZ 
      BECMG 1022/1024 2000 HZ 
      BECMG 1102/1104 30006KT 2500 HZ NSC 
      BECMG 1107/1109 5000 HZ 
      BECMG 1116/1118 3500 HZ

Runways (top)

10/28: 9,000 x 150 ft (2,743 x 46 m) — paved — not lighted

Latest comments (top)

flights to darbhanga: it will be honour to open darbhanga ... [read]

Darbhanga Airport: We would request Bihar and Central ... [read]

Airport darbhanga: I am Chandeshwar Mandal and I request ... [read]

started airport: plz started immediatly domestic service [read]

mojahid: jald chal u karo bhai [read]

See all 17 comments for Darbhanga Airport

More... (top)

See also NOTAMs and nearby airports and navaids, or visit the Darbhanga Airport page at the main OurAirports website..